sensor_id;sensor_type;location;lat;lon;timestamp;pressure;altitude;pressure_sealevel;temperature;humidity
80124;BME280;69433;48.642;9.142;2023-07-22T00:01:32;96958.03;;;22.96;40.22
80124;BME280;69433;48.642;9.142;2023-07-22T00:03:58;96954.69;;;22.88;40.44
80124;BME280;69433;48.642;9.142;2023-07-22T00:06:23;96962.69;;;22.91;40.54
80124;BME280;69433;48.642;9.142;2023-07-22T00:08:49;96961.91;;;22.91;40.17
80124;BME280;69433;48.642;9.142;2023-07-22T00:11:15;96968.41;;;22.93;40.34
80124;BME280;69433;48.642;9.142;2023-07-22T00:13:40;96969.44;;;23.00;40.23
80124;BME280;69433;48.642;9.142;2023-07-22T00:16:05;96965.69;;;22.97;40.31
80124;BME280;69433;48.642;9.142;2023-07-22T00:18:33;96971.06;;;22.93;40.22
80124;BME280;69433;48.642;9.142;2023-07-22T00:20:58;96977.19;;;22.94;40.33
80124;BME280;69433;48.642;9.142;2023-07-22T00:23:23;96968.03;;;22.91;40.48
80124;BME280;69433;48.642;9.142;2023-07-22T00:25:49;96971.03;;;22.97;40.17
80124;BME280;69433;48.642;9.142;2023-07-22T00:28:15;96969.81;;;23.02;40.04
80124;BME280;69433;48.642;9.142;2023-07-22T00:30:41;96970.97;;;23.01;40.08
80124;BME280;69433;48.642;9.142;2023-07-22T00:33:07;96968.00;;;22.95;40.24
80124;BME280;69433;48.642;9.142;2023-07-22T00:35:32;96964.91;;;22.97;40.30
80124;BME280;69433;48.642;9.142;2023-07-22T00:37:58;96968.34;;;22.97;40.01
80124;BME280;69433;48.642;9.142;2023-07-22T00:40:24;96960.25;;;23.01;40.27
80124;BME280;69433;48.642;9.142;2023-07-22T00:42:49;96967.22;;;22.94;39.90
80124;BME280;69433;48.642;9.142;2023-07-22T00:45:15;96961.97;;;22.87;40.86
80124;BME280;69433;48.642;9.142;2023-07-22T00:47:40;96963.41;;;22.96;40.13
80124;BME280;69433;48.642;9.142;2023-07-22T00:50:06;96969.44;;;23.00;40.11
80124;BME280;69433;48.642;9.142;2023-07-22T00:52:33;96962.22;;;22.97;39.95
80124;BME280;69433;48.642;9.142;2023-07-22T00:54:59;96956.88;;;22.97;39.87
80124;BME280;69433;48.642;9.142;2023-07-22T00:57:24;96954.94;;;22.97;40.03
80124;BME280;69433;48.642;9.142;2023-07-22T00:59:50;96959.94;;;22.95;40.22
80124;BME280;69433;48.642;9.142;2023-07-22T01:02:16;96954.53;;;22.99;40.08
80124;BME280;69433;48.642;9.142;2023-07-22T01:04:41;96956.41;;;23.02;39.84
80124;BME280;69433;48.642;9.142;2023-07-22T01:07:08;96951.78;;;23.02;39.85
80124;BME280;69433;48.642;9.142;2023-07-22T01:09:40;96956.28;;;23.09;39.85
80124;BME280;69433;48.642;9.142;2023-07-22T01:12:06;96953.00;;;22.98;40.14
80124;BME280;69433;48.642;9.142;2023-07-22T01:14:36;96952.16;;;23.04;39.85
80124;BME280;69433;48.642;9.142;2023-07-22T01:17:03;96950.59;;;23.07;39.67
80124;BME280;69433;48.642;9.142;2023-07-22T01:19:29;96954.13;;;23.00;39.70
80124;BME280;69433;48.642;9.142;2023-07-22T01:21:57;96936.22;;;22.93;40.02
80124;BME280;69433;48.642;9.142;2023-07-22T01:24:24;96942.72;;;22.96;39.96
80124;BME280;69433;48.642;9.142;2023-07-22T01:26:50;96948.59;;;22.87;39.90
80124;BME280;69433;48.642;9.142;2023-07-22T01:29:15;96935.44;;;22.97;39.89
80124;BME280;69433;48.642;9.142;2023-07-22T01:31:41;96940.78;;;22.97;39.88
80124;BME280;69433;48.642;9.142;2023-07-22T01:34:06;96937.75;;;22.94;39.84
80124;BME280;69433;48.642;9.142;2023-07-22T01:36:31;96933.50;;;22.97;39.65
80124;BME280;69433;48.642;9.142;2023-07-22T01:38:57;96935.09;;;22.91;39.34
80124;BME280;69433;48.642;9.142;2023-07-22T01:41:22;96937.75;;;22.94;39.53
80124;BME280;69433;48.642;9.142;2023-07-22T01:43:48;96938.09;;;22.97;39.54
80124;BME280;69433;48.642;9.142;2023-07-22T01:46:14;96939.50;;;23.05;39.41
80124;BME280;69433;48.642;9.142;2023-07-22T01:48:39;96938.78;;;23.01;39.27
80124;BME280;69433;48.642;9.142;2023-07-22T01:51:06;96936.59;;;22.96;39.55
80124;BME280;69433;48.642;9.142;2023-07-22T01:53:33;96934.94;;;23.02;39.25
80124;BME280;69433;48.642;9.142;2023-07-22T01:55:58;96934.06;;;23.08;39.26
80124;BME280;69433;48.642;9.142;2023-07-22T01:58:23;96929.94;;;23.04;39.10
80124;BME280;69433;48.642;9.142;2023-07-22T02:00:51;96934.53;;;23.03;39.33
80124;BME280;69433;48.642;9.142;2023-07-22T02:03:16;96933.78;;;23.03;39.18
80124;BME280;69433;48.642;9.142;2023-07-22T02:05:42;96931.50;;;23.01;39.22
80124;BME280;69433;48.642;9.142;2023-07-22T02:08:08;96925.75;;;23.03;39.34
80124;BME280;69433;48.642;9.142;2023-07-22T02:10:33;96935.34;;;23.00;39.38
80124;BME280;69433;48.642;9.142;2023-07-22T02:12:58;96931.63;;;22.94;39.09
80124;BME280;69433;48.642;9.142;2023-07-22T02:15:24;96937.75;;;22.94;39.02
80124;BME280;69433;48.642;9.142;2023-07-22T02:17:50;96939.03;;;22.86;39.03
80124;BME280;69433;48.642;9.142;2023-07-22T02:20:15;96938.59;;;22.88;39.30
80124;BME280;69433;48.642;9.142;2023-07-22T02:22:40;96936.75;;;22.85;39.35
80124;BME280;69433;48.642;9.142;2023-07-22T02:25:06;96947.41;;;22.88;38.99
80124;BME280;69433;48.642;9.142;2023-07-22T02:27:32;96948.13;;;22.92;39.00
80124;BME280;69433;48.642;9.142;2023-07-22T02:29:57;96948.75;;;23.00;38.80
80124;BME280;69433;48.642;9.142;2023-07-22T02:32:22;96954.06;;;23.04;38.92
80124;BME280;69433;48.642;9.142;2023-07-22T02:34:48;96952.97;;;23.01;38.72
80124;BME280;69433;48.642;9.142;2023-07-22T02:37:13;96949.59;;;22.97;38.81
80124;BME280;69433;48.642;9.142;2023-07-22T02:39:38;96957.97;;;22.99;38.86
80124;BME280;69433;48.642;9.142;2023-07-22T02:42:04;96950.31;;;22.98;38.72
80124;BME280;69433;48.642;9.142;2023-07-22T02:44:29;96958.72;;;23.00;38.71
80124;BME280;69433;48.642;9.142;2023-07-22T02:46:54;96951.78;;;23.02;38.73
80124;BME280;69433;48.642;9.142;2023-07-22T02:49:19;96959.56;;;22.97;38.67
80124;BME280;69433;48.642;9.142;2023-07-22T02:51:45;96957.31;;;22.91;38.61
80124;BME280;69433;48.642;9.142;2023-07-22T02:54:10;96956.94;;;22.89;38.73
80124;BME280;69433;48.642;9.142;2023-07-22T02:56:35;96964.19;;;22.92;38.72
80124;BME280;69433;48.642;9.142;2023-07-22T02:59:01;96957.28;;;22.95;38.79
80124;BME280;69433;48.642;9.142;2023-07-22T03:01:26;96959.19;;;22.94;38.63
80124;BME280;69433;48.642;9.142;2023-07-22T03:03:51;96951.50;;;22.97;38.65
80124;BME280;69433;48.642;9.142;2023-07-22T03:06:16;96945.72;;;22.98;38.56
80124;BME280;69433;48.642;9.142;2023-07-22T03:08:45;96940.44;;;22.94;38.35
80124;BME280;69433;48.642;9.142;2023-07-22T03:11:10;96933.84;;;22.99;38.77
80124;BME280;69433;48.642;9.142;2023-07-22T03:13:35;96936.50;;;22.99;38.68
80124;BME280;69433;48.642;9.142;2023-07-22T03:16:01;96941.84;;;23.03;38.55
80124;BME280;69433;48.642;9.142;2023-07-22T03:18:30;96942.59;;;23.03;38.64
80124;BME280;69433;48.642;9.142;2023-07-22T03:20:56;96947.25;;;22.99;38.58
80124;BME280;69433;48.642;9.142;2023-07-22T03:23:22;96938.44;;;22.99;38.85
80124;BME280;69433;48.642;9.142;2023-07-22T03:25:48;96946.44;;;23.02;38.75
80124;BME280;69433;48.642;9.142;2023-07-22T03:28:13;96944.97;;;22.98;38.76
80124;BME280;69433;48.642;9.142;2023-07-22T03:30:39;96948.88;;;22.93;38.75
80124;BME280;69433;48.642;9.142;2023-07-22T03:33:04;96945.84;;;22.91;38.84
80124;BME280;69433;48.642;9.142;2023-07-22T03:35:30;96940.06;;;22.92;38.78
80124;BME280;69433;48.642;9.142;2023-07-22T03:37:56;96937.75;;;22.94;38.92
80124;BME280;69433;48.642;9.142;2023-07-22T03:40:21;96938.78;;;23.01;38.74
80124;BME280;69433;48.642;9.142;2023-07-22T03:42:56;96933.03;;;23.02;38.54
80124;BME280;69433;48.642;9.142;2023-07-22T03:45:23;96941.84;;;23.03;38.63
80124;BME280;69433;48.642;9.142;2023-07-22T03:48:01;96939.16;;;23.03;38.52
80124;BME280;69433;48.642;9.142;2023-07-22T03:50:27;96941.03;;;23.06;38.38
80124;BME280;69433;48.642;9.142;2023-07-22T03:52:52;96942.59;;;23.03;38.36
80124;BME280;69433;48.642;9.142;2023-07-22T03:55:17;96935.66;;;23.06;38.60
80124;BME280;69433;48.642;9.142;2023-07-22T03:57:45;96942.47;;;23.10;38.52
80124;BME280;69433;48.642;9.142;2023-07-22T04:00:10;96934.94;;;23.02;38.43
80124;BME280;69433;48.642;9.142;2023-07-22T04:02:36;96938.00;;;23.04;38.41
80124;BME280;69433;48.642;9.142;2023-07-22T04:05:02;96936.81;;;23.05;38.34
80124;BME280;69433;48.642;9.142;2023-07-22T04:07:27;96935.66;;;23.06;38.39
80124;BME280;69433;48.642;9.142;2023-07-22T04:09:53;96932.63;;;23.04;38.40
80124;BME280;69433;48.642;9.142;2023-07-22T04:12:18;96937.22;;;23.03;38.28
80124;BME280;69433;48.642;9.142;2023-07-22T04:14:43;96937.22;;;23.03;38.41
80124;BME280;69433;48.642;9.142;2023-07-22T04:17:09;96931.88;;;23.03;38.37
80124;BME280;69433;48.642;9.142;2023-07-22T04:19:41;96932.16;;;23.09;38.32
80124;BME280;69433;48.642;9.142;2023-07-22T04:22:07;96928.31;;;23.10;38.24
80124;BME280;69433;48.642;9.142;2023-07-22T04:24:32;96932.16;;;23.09;38.30
80124;BME280;69433;48.642;9.142;2023-07-22T04:26:58;96932.28;;;23.02;37.94
80124;BME280;69433;48.642;9.142;2023-07-22T04:29:23;96937.28;;;23.00;38.20
80124;BME280;69433;48.642;9.142;2023-07-22T04:31:48;96941.13;;;22.99;38.46
80124;BME280;69433;48.642;9.142;2023-07-22T04:34:20;96936.09;;;23.01;38.23
80124;BME280;69433;48.642;9.142;2023-07-22T04:36:45;96942.22;;;23.01;38.07
80124;BME280;69433;48.642;9.142;2023-07-22T04:39:10;96935.66;;;23.06;38.36
80124;BME280;69433;48.642;9.142;2023-07-22T04:41:35;96939.50;;;23.05;38.05
80124;BME280;69433;48.642;9.142;2023-07-22T04:44:01;96938.78;;;23.01;38.37
80124;BME280;69433;48.642;9.142;2023-07-22T04:46:26;96936.50;;;22.99;38.27
80124;BME280;69433;48.642;9.142;2023-07-22T04:48:55;96939.94;;;23.00;38.41
80124;BME280;69433;48.642;9.142;2023-07-22T04:51:21;96935.72;;;23.02;38.13
80124;BME280;69433;48.642;9.142;2023-07-22T04:53:46;96937.59;;;23.05;38.42
80124;BME280;69433;48.642;9.142;2023-07-22T04:56:11;96938.75;;;23.04;38.30
80124;BME280;69433;48.642;9.142;2023-07-22T04:58:36;96941.44;;;23.04;38.24
80124;BME280;69433;48.642;9.142;2023-07-22T05:01:02;96941.78;;;23.06;38.34
80124;BME280;69433;48.642;9.142;2023-07-22T05:03:27;96936.44;;;23.06;38.42
80124;BME280;69433;48.642;9.142;2023-07-22T05:05:53;96931.06;;;23.06;38.42
80124;BME280;69433;48.642;9.142;2023-07-22T05:08:18;96936.72;;;23.12;38.29
80124;BME280;69433;48.642;9.142;2023-07-22T05:10:43;96939.75;;;23.14;38.14
80124;BME280;69433;48.642;9.142;2023-07-22T05:13:09;96948.84;;;23.20;37.98
80124;BME280;69433;48.642;9.142;2023-07-22T05:15:34;96943.94;;;23.15;38.19
80124;BME280;69433;48.642;9.142;2023-07-22T05:17:59;96955.44;;;23.15;38.13
80124;BME280;69433;48.642;9.142;2023-07-22T05:20:24;96954.59;;;23.18;38.15
80124;BME280;69433;48.642;9.142;2023-07-22T05:22:50;96960.78;;;23.15;37.93
80124;BME280;69433;48.642;9.142;2023-07-22T05:25:15;96961.56;;;23.16;38.27
80124;BME280;69433;48.642;9.142;2023-07-22T05:27:41;96964.94;;;23.20;38.18
80124;BME280;69433;48.642;9.142;2023-07-22T05:30:07;96971.81;;;23.21;38.06
80124;BME280;69433;48.642;9.142;2023-07-22T05:32:35;96969.88;;;23.21;38.02
80124;BME280;69433;48.642;9.142;2023-07-22T05:35:01;96967.47;;;23.27;37.97
80124;BME280;69433;48.642;9.142;2023-07-22T05:37:30;96972.22;;;23.19;37.91
80124;BME280;69433;48.642;9.142;2023-07-22T05:39:55;96970.59;;;23.25;38.03
80124;BME280;69433;48.642;9.142;2023-07-22T05:42:21;96969.09;;;23.24;37.91
80124;BME280;69433;48.642;9.142;2023-07-22T05:44:47;96974.44;;;23.24;38.00
80124;BME280;69433;48.642;9.142;2023-07-22T05:47:13;96974.09;;;23.22;38.10
80124;BME280;69433;48.642;9.142;2023-07-22T05:49:38;96975.22;;;23.25;38.36
80124;BME280;69433;48.642;9.142;2023-07-22T05:52:04;96978.69;;;23.22;38.42
80124;BME280;69433;48.642;9.142;2023-07-22T05:54:29;96977.22;;;23.17;38.41
80124;BME280;69433;48.642;9.142;2023-07-22T05:56:54;96981.78;;;23.20;38.34
80124;BME280;69433;48.642;9.142;2023-07-22T05:59:20;96987.91;;;23.21;38.49
80124;BME280;69433;48.642;9.142;2023-07-22T06:01:45;96989.06;;;23.20;38.57
80124;BME280;69433;48.642;9.142;2023-07-22T06:04:10;96991.81;;;23.16;38.78
80124;BME280;69433;48.642;9.142;2023-07-22T06:06:35;96988.00;;;23.14;38.83
80124;BME280;69433;48.642;9.142;2023-07-22T06:09:01;96987.66;;;23.12;38.73
80124;BME280;69433;48.642;9.142;2023-07-22T06:11:26;96989.28;;;23.06;39.12
80124;BME280;69433;48.642;9.142;2023-07-22T06:13:52;96999.53;;;23.11;39.27
80124;BME280;69433;48.642;9.142;2023-07-22T06:16:17;96997.59;;;23.15;38.75
80124;BME280;69433;48.642;9.142;2023-07-22T06:18:42;96993.03;;;23.12;39.21
80124;BME280;69433;48.642;9.142;2023-07-22T06:21:08;96994.19;;;23.11;38.96
80124;BME280;69433;48.642;9.142;2023-07-22T06:23:33;96993.03;;;23.12;39.04
80124;BME280;69433;48.642;9.142;2023-07-22T06:25:58;96991.53;;;23.07;39.16
80124;BME280;69433;48.642;9.142;2023-07-22T06:28:24;96987.41;;;23.03;39.33
80124;BME280;69433;48.642;9.142;2023-07-22T06:30:49;96990.06;;;23.06;39.30
80124;BME280;69433;48.642;9.142;2023-07-22T06:33:14;96989.97;;;23.10;39.42
80124;BME280;69433;48.642;9.142;2023-07-22T06:35:40;96990.75;;;23.10;39.36
80124;BME280;69433;48.642;9.142;2023-07-22T06:38:05;96996.09;;;23.10;39.61
80124;BME280;69433;48.642;9.142;2023-07-22T06:40:34;97001.91;;;23.32;39.12
80124;BME280;69433;48.642;9.142;2023-07-22T06:42:59;97005.88;;;23.47;39.31
80124;BME280;69433;48.642;9.142;2023-07-22T06:45:24;97001.47;;;23.60;39.26
80124;BME280;69433;48.642;9.142;2023-07-22T06:47:50;97003.63;;;23.69;39.41
80124;BME280;69433;48.642;9.142;2023-07-22T06:50:15;97008.88;;;23.76;39.08
80124;BME280;69433;48.642;9.142;2023-07-22T06:52:40;97009.50;;;23.84;38.82
80124;BME280;69433;48.642;9.142;2023-07-22T06:55:06;97010.50;;;23.70;39.31
80124;BME280;69433;48.642;9.142;2023-07-22T06:57:32;97012.25;;;23.80;39.04
80124;BME280;69433;48.642;9.142;2023-07-22T06:59:58;97007.88;;;23.90;38.87
80124;BME280;69433;48.642;9.142;2023-07-22T07:02:23;97010.16;;;23.91;39.00
80124;BME280;69433;48.642;9.142;2023-07-22T07:04:49;97010.78;;;23.99;38.83
80124;BME280;69433;48.642;9.142;2023-07-22T07:07:15;97009.06;;;24.09;38.70
80124;BME280;69433;48.642;9.142;2023-07-22T07:09:41;97005.88;;;24.14;38.71
80124;BME280;69433;48.642;9.142;2023-07-22T07:12:08;97008.16;;;24.15;38.70
80124;BME280;69433;48.642;9.142;2023-07-22T07:14:34;97008.44;;;24.21;38.72
80124;BME280;69433;48.642;9.142;2023-07-22T07:17:01;97017.16;;;24.28;38.49
80124;BME280;69433;48.642;9.142;2023-07-22T07:19:26;97016.94;;;24.39;38.64
80124;BME280;69433;48.642;9.142;2023-07-22T07:21:52;97013.69;;;24.48;38.36
80124;BME280;69433;48.642;9.142;2023-07-22T07:24:17;97012.44;;;24.52;38.36
80124;BME280;69433;48.642;9.142;2023-07-22T07:26:42;97002.31;;;24.60;38.29
80124;BME280;69433;48.642;9.142;2023-07-22T07:29:07;97009.47;;;24.66;37.86
80124;BME280;69433;48.642;9.142;2023-07-22T07:31:33;97008.56;;;24.73;38.10
80124;BME280;69433;48.642;9.142;2023-07-22T07:33:58;97009.59;;;24.79;38.17
80124;BME280;69433;48.642;9.142;2023-07-22T07:36:24;97004.13;;;24.83;37.97
80124;BME280;69433;48.642;9.142;2023-07-22T07:38:49;97007.50;;;24.87;37.98
80124;BME280;69433;48.642;9.142;2023-07-22T07:41:14;97003.97;;;24.90;37.96
80124;BME280;69433;48.642;9.142;2023-07-22T07:43:41;97007.78;;;24.92;37.93
80124;BME280;69433;48.642;9.142;2023-07-22T07:46:23;97009.66;;;24.95;37.94
80124;BME280;69433;48.642;9.142;2023-07-22T07:48:56;97008.81;;;24.98;38.07
80124;BME280;69433;48.642;9.142;2023-07-22T07:51:23;97006.78;;;25.02;38.26
80124;BME280;69433;48.642;9.142;2023-07-22T07:53:49;97015.91;;;25.08;38.03
80124;BME280;69433;48.642;9.142;2023-07-22T07:56:17;97009.66;;;25.11;38.73
80124;BME280;69433;48.642;9.142;2023-07-22T07:58:45;97009.50;;;25.19;38.38
80124;BME280;69433;48.642;9.142;2023-07-22T08:01:11;97000.94;;;25.24;38.50
80124;BME280;69433;48.642;9.142;2023-07-22T08:03:40;97002.78;;;25.27;38.63
80124;BME280;69433;48.642;9.142;2023-07-22T08:06:06;97011.19;;;25.29;38.27
80124;BME280;69433;48.642;9.142;2023-07-22T08:08:32;97008.00;;;25.34;38.14
80124;BME280;69433;48.642;9.142;2023-07-22T08:11:03;97006.81;;;25.35;38.12
80124;BME280;69433;48.642;9.142;2023-07-22T08:13:28;97004.03;;;25.38;38.34
80124;BME280;69433;48.642;9.142;2023-07-22T08:16:03;97010.50;;;25.41;37.84
80124;BME280;69433;48.642;9.142;2023-07-22T08:18:29;97005.81;;;25.45;38.22
80124;BME280;69433;48.642;9.142;2023-07-22T08:20:55;96998.50;;;25.45;37.86
80124;BME280;69433;48.642;9.142;2023-07-22T08:23:21;96991.50;;;25.48;37.82
80124;BME280;69433;48.642;9.142;2023-07-22T08:25:46;96997.56;;;25.52;37.66
80124;BME280;69433;48.642;9.142;2023-07-22T08:28:12;96994.03;;;25.55;37.80
80124;BME280;69433;48.642;9.142;2023-07-22T08:30:37;96992.41;;;25.58;37.58
80124;BME280;69433;48.642;9.142;2023-07-22T08:33:05;96993.13;;;25.62;37.52
80124;BME280;69433;48.642;9.142;2023-07-22T08:35:30;96991.19;;;25.62;37.72
80124;BME280;69433;48.642;9.142;2023-07-22T08:37:55;96990.34;;;25.65;37.44
80124;BME280;69433;48.642;9.142;2023-07-22T08:40:21;96980.34;;;25.66;37.05
80124;BME280;69433;48.642;9.142;2023-07-22T08:42:48;96984.09;;;25.68;37.25
80124;BME280;69433;48.642;9.142;2023-07-22T08:45:14;96987.47;;;25.72;36.95
80124;BME280;69433;48.642;9.142;2023-07-22T08:47:45;96978.53;;;25.75;36.79
80124;BME280;69433;48.642;9.142;2023-07-22T08:50:11;96982.31;;;25.78;36.92
80124;BME280;69433;48.642;9.142;2023-07-22T08:52:39;96979.19;;;25.79;37.02
80124;BME280;69433;48.642;9.142;2023-07-22T08:55:08;96985.25;;;25.83;36.88
80124;BME280;69433;48.642;9.142;2023-07-22T08:57:35;96972.84;;;25.86;36.99
80124;BME280;69433;48.642;9.142;2023-07-22T09:00:02;96979.69;;;25.91;37.04
80124;BME280;69433;48.642;9.142;2023-07-22T09:02:29;96979.59;;;25.94;37.06
80124;BME280;69433;48.642;9.142;2023-07-22T09:04:54;96980.66;;;25.97;37.25
80124;BME280;69433;48.642;9.142;2023-07-22T09:07:21;96990.25;;;25.98;37.30
80124;BME280;69433;48.642;9.142;2023-07-22T09:09:47;96982.16;;;25.98;37.45
80124;BME280;69433;48.642;9.142;2023-07-22T09:12:14;96976.38;;;25.99;37.58
80124;BME280;69433;48.642;9.142;2023-07-22T09:14:40;96975.09;;;26.04;37.35
80124;BME280;69433;48.642;9.142;2023-07-22T09:17:05;96992.44;;;26.03;37.60
80124;BME280;69433;48.642;9.142;2023-07-22T09:19:31;96981.97;;;26.05;37.54
80124;BME280;69433;48.642;9.142;2023-07-22T09:21:56;96981.56;;;26.06;37.79
80124;BME280;69433;48.642;9.142;2023-07-22T09:24:25;96979.97;;;26.09;37.60
80124;BME280;69433;48.642;9.142;2023-07-22T09:26:51;96982.22;;;26.10;37.73
80124;BME280;69433;48.642;9.142;2023-07-22T09:29:17;96985.69;;;26.11;37.68
80124;BME280;69433;48.642;9.142;2023-07-22T09:31:54;96985.34;;;26.09;37.86
80124;BME280;69433;48.642;9.142;2023-07-22T09:34:19;96976.91;;;26.07;37.81
80124;BME280;69433;48.642;9.142;2023-07-22T09:39:17;96976.16;;;26.06;37.63
80124;BME280;69433;48.642;9.142;2023-07-22T09:41:43;96976.91;;;26.07;37.61
80124;BME280;69433;48.642;9.142;2023-07-22T09:44:11;96982.66;;;26.09;37.74
80124;BME280;69433;48.642;9.142;2023-07-22T09:46:49;96976.91;;;26.07;37.59
80124;BME280;69433;48.642;9.142;2023-07-22T09:49:17;96976.59;;;26.05;37.71
80124;BME280;69433;48.642;9.142;2023-07-22T09:51:43;96976.28;;;26.03;37.75
80124;BME280;69433;48.642;9.142;2023-07-22T09:54:08;96978.22;;;26.02;37.84
80124;BME280;69433;48.642;9.142;2023-07-22T09:56:45;96978.56;;;26.04;37.54
80124;BME280;69433;48.642;9.142;2023-07-22T09:59:11;96978.56;;;26.04;37.51
80124;BME280;69433;48.642;9.142;2023-07-22T10:01:40;96968.84;;;26.07;37.45
80124;BME280;69433;48.642;9.142;2023-07-22T10:04:06;96974.22;;;26.07;37.54
80124;BME280;69433;48.642;9.142;2023-07-22T10:06:33;96970.34;;;26.08;37.57
80124;BME280;69433;48.642;9.142;2023-07-22T10:09:05;96969.19;;;26.09;37.23
80124;BME280;69433;48.642;9.142;2023-07-22T10:11:34;96966.81;;;26.11;37.23
80124;BME280;69433;48.642;9.142;2023-07-22T10:14:02;96972.84;;;26.15;37.42
80124;BME280;69433;48.642;9.142;2023-07-22T10:16:28;96962.75;;;26.19;37.33
80124;BME280;69433;48.642;9.142;2023-07-22T10:18:54;96965.78;;;26.21;37.40
80124;BME280;69433;48.642;9.142;2023-07-22T10:21:21;96952.63;;;26.23;37.12
80124;BME280;69433;48.642;9.142;2023-07-22T10:23:47;96958.31;;;26.25;37.37
80124;BME280;69433;48.642;9.142;2023-07-22T10:26:16;96961.38;;;26.27;37.45
80124;BME280;69433;48.642;9.142;2023-07-22T10:28:43;96959.34;;;26.31;37.28
80124;BME280;69433;48.642;9.142;2023-07-22T10:31:14;96956.22;;;26.33;37.39
80124;BME280;69433;48.642;9.142;2023-07-22T10:33:45;96948.34;;;26.38;37.09
80124;BME280;69433;48.642;9.142;2023-07-22T10:36:14;96944.47;;;26.39;37.24
80124;BME280;69433;48.642;9.142;2023-07-22T10:38:39;96948.34;;;26.38;37.15
80124;BME280;69433;48.642;9.142;2023-07-22T10:41:12;96967.56;;;26.40;37.24
80124;BME280;69433;48.642;9.142;2023-07-22T10:43:38;96958.72;;;26.40;37.03
80124;BME280;69433;48.642;9.142;2023-07-22T10:46:12;96954.09;;;26.40;37.20
80124;BME280;69433;48.642;9.142;2023-07-22T10:48:39;96953.66;;;26.42;36.87
80124;BME280;69433;48.642;9.142;2023-07-22T10:51:13;96946.63;;;26.44;37.13
80124;BME280;69433;48.642;9.142;2023-07-22T10:53:50;96945.88;;;26.44;37.00
80124;BME280;69433;48.642;9.142;2023-07-22T10:56:20;96946.34;;;26.42;37.07
80124;BME280;69433;48.642;9.142;2023-07-22T11:06:57;96943.41;;;26.49;36.96
80124;BME280;69433;48.642;9.142;2023-07-22T11:12:09;96923.69;;;26.52;36.98
80124;BME280;69433;48.642;9.142;2023-07-22T11:14:52;96925.63;;;26.52;36.95
80124;BME280;69433;48.642;9.142;2023-07-22T11:17:27;96927.88;;;26.53;36.89
80124;BME280;69433;48.642;9.142;2023-07-22T11:19:55;96916.34;;;26.53;36.75
80124;BME280;69433;48.642;9.142;2023-07-22T11:22:20;96914.84;;;26.52;36.90
80124;BME280;69433;48.642;9.142;2023-07-22T11:24:46;96917.09;;;26.53;36.90
80124;BME280;69433;48.642;9.142;2023-07-22T11:27:11;96921.31;;;26.54;36.91
80124;BME280;69433;48.642;9.142;2023-07-22T11:29:43;96910.09;;;26.56;36.87
80124;BME280;69433;48.642;9.142;2023-07-22T11:32:15;96903.84;;;26.59;37.08
80124;BME280;69433;48.642;9.142;2023-07-22T11:34:41;96910.00;;;26.59;36.82
80124;BME280;69433;48.642;9.142;2023-07-22T11:37:09;96910.63;;;26.64;36.85
80124;BME280;69433;48.642;9.142;2023-07-22T11:39:36;96900.50;;;26.68;36.88
80124;BME280;69433;48.642;9.142;2023-07-22T11:42:03;96894.66;;;26.69;36.88
80124;BME280;69433;48.642;9.142;2023-07-22T11:44:29;96887.34;;;26.70;37.02
80124;BME280;69433;48.642;9.142;2023-07-22T11:47:06;96891.56;;;26.71;36.74
80124;BME280;69433;48.642;9.142;2023-07-22T11:49:39;96888.09;;;26.70;36.97
80124;BME280;69433;48.642;9.142;2023-07-22T11:52:08;96886.59;;;26.69;36.98
80124;BME280;69433;48.642;9.142;2023-07-22T11:54:35;96884.66;;;26.70;36.90
80124;BME280;69433;48.642;9.142;2023-07-22T11:57:17;96887.66;;;26.72;36.83
80124;BME280;69433;48.642;9.142;2023-07-22T11:59:44;96881.06;;;26.73;36.92
80124;BME280;69433;48.642;9.142;2023-07-22T12:02:20;96873.28;;;26.75;36.77
80124;BME280;69433;48.642;9.142;2023-07-22T12:05:03;96870.59;;;26.75;36.82
80124;BME280;69433;48.642;9.142;2023-07-22T12:07:30;96875.66;;;26.73;36.79
80124;BME280;69433;48.642;9.142;2023-07-22T12:09:58;96872.22;;;26.72;36.92
80124;BME280;69433;48.642;9.142;2023-07-22T12:12:42;96875.25;;;26.74;36.89
80124;BME280;69433;48.642;9.142;2023-07-22T12:15:11;96870.59;;;26.75;36.79
80124;BME280;69433;48.642;9.142;2023-07-22T12:17:58;96860.13;;;26.77;36.86
80124;BME280;69433;48.642;9.142;2023-07-22T12:20:26;96862.84;;;26.77;36.72
80124;BME280;69433;48.642;9.142;2023-07-22T12:22:52;96869.31;;;26.79;36.80
80124;BME280;69433;48.642;9.142;2023-07-22T12:25:18;96860.88;;;26.77;36.85
80124;BME280;69433;48.642;9.142;2023-07-22T12:27:44;96868.56;;;26.79;36.78
80124;BME280;69433;48.642;9.142;2023-07-22T12:30:10;96865.44;;;26.80;36.58
80124;BME280;69433;48.642;9.142;2023-07-22T12:32:35;96863.50;;;26.81;36.57
80124;BME280;69433;48.642;9.142;2023-07-22T12:35:01;96866.94;;;26.81;36.63
80124;BME280;69433;48.642;9.142;2023-07-22T12:37:28;96863.03;;;26.82;36.70
80124;BME280;69433;48.642;9.142;2023-07-22T12:39:53;96858.41;;;26.83;36.76
80124;BME280;69433;48.642;9.142;2023-07-22T12:42:18;96859.91;;;26.84;36.66
80124;BME280;69433;48.642;9.142;2023-07-22T12:44:44;96861.41;;;26.85;36.71
80124;BME280;69433;48.642;9.142;2023-07-22T12:47:09;96850.63;;;26.85;36.76
80124;BME280;69433;48.642;9.142;2023-07-22T12:49:34;96840.59;;;26.85;36.64
80124;BME280;69433;48.642;9.142;2023-07-22T12:51:59;96856.78;;;26.85;36.94
80124;BME280;69433;48.642;9.142;2023-07-22T12:54:29;96863.34;;;26.84;36.71
80124;BME280;69433;48.642;9.142;2023-07-22T12:56:55;96849.13;;;26.84;36.84
80124;BME280;69433;48.642;9.142;2023-07-22T12:59:21;96841.78;;;26.84;36.74
80124;BME280;69433;48.642;9.142;2023-07-22T13:01:46;96841.34;;;26.86;36.80
80124;BME280;69433;48.642;9.142;2023-07-22T13:04:12;96845.22;;;26.85;36.84
80124;BME280;69433;48.642;9.142;2023-07-22T13:06:37;96843.28;;;26.85;36.75
80124;BME280;69433;48.642;9.142;2023-07-22T13:09:03;96831.75;;;26.85;36.77
80124;BME280;69433;48.642;9.142;2023-07-22T13:11:28;96854.41;;;26.87;36.76